createdAt,value
2022-12-25T00:00:42.739Z,8.52
2022-12-25T00:03:10.803Z,8.41
2022-12-25T00:05:39.271Z,8.60
2022-12-25T00:08:07.318Z,8.45
2022-12-25T00:10:37.510Z,8.35
2022-12-25T00:13:10.304Z,8.43
2022-12-25T00:15:39.746Z,8.53
2022-12-25T00:18:07.992Z,8.54
2022-12-25T00:20:35.288Z,8.49
2022-12-25T00:23:02.669Z,8.55
2022-12-25T00:25:30.076Z,8.42
2022-12-25T00:27:57.812Z,8.51
2022-12-25T00:30:25.124Z,8.51
2022-12-25T00:32:52.457Z,8.42
2022-12-25T00:35:19.862Z,8.43
2022-12-25T00:37:47.168Z,8.42
2022-12-25T00:40:28.845Z,8.50
2022-12-25T00:43:06.937Z,8.33
2022-12-25T00:45:35.045Z,8.28
2022-12-25T00:48:02.906Z,8.02
2022-12-25T00:50:30.463Z,7.81
2022-12-25T00:52:58.179Z,7.82
2022-12-25T00:55:25.578Z,7.69
2022-12-25T00:57:53.294Z,7.57
2022-12-25T01:00:21.085Z,7.57
2022-12-25T01:02:48.459Z,7.51
2022-12-25T01:05:15.887Z,7.54
2022-12-25T01:07:43.181Z,7.48
2022-12-25T01:10:23.225Z,7.37
2022-12-25T01:12:51.577Z,7.33
2022-12-25T01:15:19.414Z,7.31
2022-12-25T01:17:46.731Z,7.37
2022-12-25T01:20:15.502Z,7.31
2022-12-25T01:22:43.808Z,7.28
2022-12-25T01:25:12.771Z,7.01
2022-12-25T01:27:41.174Z,6.97
2022-12-25T01:30:08.841Z,6.85
2022-12-25T01:32:36.713Z,6.65
2022-12-25T01:35:04.249Z,6.66
2022-12-25T01:37:32.537Z,6.57
2022-12-25T01:40:00.453Z,6.60
2022-12-25T01:42:28.211Z,6.58
2022-12-25T01:44:55.447Z,6.61
2022-12-25T01:47:22.783Z,6.50
2022-12-25T01:49:51.275Z,6.51
2022-12-25T01:52:24.160Z,6.57
2022-12-25T01:55:00.511Z,6.61
2022-12-25T01:57:30.439Z,6.70
2022-12-25T01:59:59.373Z,6.79
2022-12-25T02:02:27.887Z,6.65
2022-12-25T02:05:05.291Z,6.72
2022-12-25T02:07:34.924Z,6.71
2022-12-25T02:10:02.366Z,6.67
2022-12-25T02:12:32.015Z,6.70
2022-12-25T02:15:05.386Z,6.64
2022-12-25T02:17:40.283Z,6.60
2022-12-25T02:20:13.738Z,6.59
2022-12-25T02:22:59.464Z,6.55
2022-12-25T02:25:32.884Z,6.46
2022-12-25T02:28:20.604Z,6.47
2022-12-25T02:31:17.851Z,6.49
2022-12-25T02:34:03.492Z,6.46
2022-12-25T02:36:50.659Z,6.59
2022-12-25T02:39:43.335Z,6.54
2022-12-25T02:42:13.845Z,6.52
2022-12-25T02:45:02.411Z,6.58
2022-12-25T02:47:50.366Z,6.55
2022-12-25T02:50:36.904Z,6.56
2022-12-25T02:53:24.123Z,6.54
2022-12-25T02:56:11.345Z,6.58
2022-12-25T02:58:58.295Z,6.53
2022-12-25T03:01:46.934Z,6.53
2022-12-25T03:04:34.631Z,6.52
2022-12-25T03:07:05.111Z,6.39
2022-12-25T03:10:01.305Z,6.42
2022-12-25T03:12:29.337Z,6.26
2022-12-25T03:15:15.168Z,6.33
2022-12-25T03:17:43.500Z,6.35
2022-12-25T03:20:29.682Z,6.35
2022-12-25T03:23:16.395Z,6.45
2022-12-25T03:26:03.989Z,6.43
2022-12-25T03:28:31.698Z,6.45
2022-12-25T03:31:14.323Z,6.45
2022-12-25T03:34:08.024Z,6.39
2022-12-25T03:36:42.360Z,6.44
2022-12-25T03:39:35.556Z,6.42
2022-12-25T03:42:24.017Z,6.47
2022-12-25T03:44:54.439Z,6.48
2022-12-25T03:47:46.289Z,6.44
2022-12-25T03:50:44.942Z,6.39
2022-12-25T03:53:35.335Z,6.43
2022-12-25T03:56:22.604Z,6.44
2022-12-25T03:59:10.081Z,6.46
2022-12-25T04:01:56.200Z,6.42
2022-12-25T04:04:42.291Z,6.43
2022-12-25T04:07:28.555Z,6.36
2022-12-25T04:10:14.459Z,6.28
2022-12-25T04:13:00.984Z,6.42
2022-12-25T04:15:47.827Z,6.48
2022-12-25T04:18:33.760Z,6.41
2022-12-25T04:21:19.832Z,6.49
2022-12-25T04:24:06.275Z,6.54
2022-12-25T04:26:52.000Z,6.56
2022-12-25T04:29:38.646Z,6.60
2022-12-25T04:32:24.470Z,6.56
2022-12-25T04:35:11.327Z,6.50
2022-12-25T04:37:38.872Z,6.41
2022-12-25T04:40:08.151Z,6.36
2022-12-25T04:42:35.926Z,6.27
2022-12-25T04:45:03.786Z,6.23
2022-12-25T04:47:32.323Z,6.34
2022-12-25T04:49:59.618Z,6.35
2022-12-25T04:52:27.120Z,6.33
2022-12-25T04:54:54.476Z,6.25
2022-12-25T04:57:21.860Z,6.25
2022-12-25T04:59:49.136Z,6.24
2022-12-25T05:02:16.613Z,6.21
2022-12-25T05:04:44.356Z,6.06
2022-12-25T05:07:11.691Z,6.10
2022-12-25T05:09:42.564Z,6.10
2022-12-25T05:12:10.953Z,5.99
2022-12-25T05:14:39.990Z,6.01
2022-12-25T05:17:08.206Z,6.09
2022-12-25T05:19:35.908Z,6.04
2022-12-25T05:22:03.313Z,6.02
2022-12-25T05:24:31.121Z,6.00
2022-12-25T05:26:58.840Z,6.10
2022-12-25T05:29:26.210Z,6.13
2022-12-25T05:31:53.562Z,6.13
2022-12-25T05:34:21.351Z,6.14
2022-12-25T05:36:49.102Z,6.09
2022-12-25T05:39:16.547Z,6.11
2022-12-25T05:41:44.044Z,5.96
2022-12-25T05:44:12.849Z,6.03
2022-12-25T05:46:41.074Z,6.03
2022-12-25T05:49:08.907Z,6.01
2022-12-25T05:51:36.758Z,6.08
2022-12-25T05:54:04.277Z,6.06
2022-12-25T05:56:31.689Z,6.03
2022-12-25T05:58:59.651Z,6.11
2022-12-25T06:01:28.548Z,6.16
2022-12-25T06:03:56.535Z,6.14
2022-12-25T06:06:24.048Z,6.34
2022-12-25T06:08:53.408Z,6.47
2022-12-25T06:11:21.422Z,6.60
2022-12-25T06:13:52.662Z,6.61
2022-12-25T06:16:20.379Z,6.73
2022-12-25T06:18:49.018Z,6.97
2022-12-25T06:21:16.627Z,7.04
2022-12-25T06:23:44.362Z,7.13
2022-12-25T06:26:13.807Z,7.25
2022-12-25T06:28:41.670Z,7.14
2022-12-25T06:31:13.985Z,7.16
2022-12-25T06:33:42.078Z,7.14
2022-12-25T06:36:20.322Z,7.16
2022-12-25T06:38:47.960Z,7.36
2022-12-25T06:41:17.814Z,7.41
2022-12-25T06:43:52.837Z,7.39
2022-12-25T06:46:21.444Z,7.27
2022-12-25T06:48:49.987Z,7.27
2022-12-25T06:51:18.396Z,7.32
2022-12-25T06:53:45.942Z,7.37
2022-12-25T06:56:15.782Z,7.46
2022-12-25T06:58:44.168Z,7.54
2022-12-25T07:01:15.964Z,7.54
2022-12-25T07:03:44.141Z,7.61
2022-12-25T07:06:11.562Z,7.64
2022-12-25T07:08:39.431Z,7.60
2022-12-25T07:11:07.479Z,7.48
2022-12-25T07:13:35.188Z,7.41
2022-12-25T07:16:03.689Z,7.52
2022-12-25T07:18:31.694Z,7.58
2022-12-25T07:21:00.312Z,7.48
2022-12-25T07:23:28.119Z,7.50
2022-12-25T07:25:59.824Z,7.66
2022-12-25T07:28:27.794Z,7.58
2022-12-25T07:30:55.187Z,7.65
2022-12-25T07:33:22.638Z,7.74
2022-12-25T07:35:49.967Z,7.76
2022-12-25T07:38:17.217Z,7.78
2022-12-25T07:40:47.277Z,7.94
2022-12-25T07:43:14.974Z,8.05
2022-12-25T07:45:42.359Z,8.14
2022-12-25T07:48:16.315Z,8.12
2022-12-25T07:50:44.582Z,8.22
2022-12-25T07:53:12.273Z,8.33
2022-12-25T07:55:39.548Z,8.39
2022-12-25T07:58:07.230Z,8.32
2022-12-25T08:00:34.763Z,8.44
2022-12-25T08:03:02.791Z,8.45
2022-12-25T08:05:32.369Z,8.50
2022-12-25T08:07:59.826Z,8.55
2022-12-25T08:10:27.172Z,8.65
2022-12-25T08:12:55.851Z,8.72
2022-12-25T08:15:23.329Z,8.92
2022-12-25T08:17:50.580Z,9.01
2022-12-25T08:20:17.948Z,9.08
2022-12-25T08:22:45.252Z,9.26
2022-12-25T08:25:12.638Z,9.34
2022-12-25T08:27:40.427Z,9.50
2022-12-25T08:30:08.138Z,9.40
2022-12-25T08:32:35.591Z,9.53
2022-12-25T08:35:03.046Z,9.57
2022-12-25T08:37:30.991Z,9.70
2022-12-25T08:39:58.389Z,9.67
2022-12-25T08:42:26.005Z,9.71
2022-12-25T08:44:53.744Z,9.62
2022-12-25T08:47:21.062Z,9.83
2022-12-25T08:49:48.772Z,10.06
2022-12-25T08:52:16.313Z,10.06
2022-12-25T08:54:43.718Z,10.02
2022-12-25T08:57:11.451Z,10.07
2022-12-25T08:59:38.779Z,9.99
2022-12-25T09:02:06.434Z,10.06
2022-12-25T09:04:34.318Z,10.32
2022-12-25T09:07:02.740Z,10.33
2022-12-25T09:09:30.630Z,10.36
2022-12-25T09:11:58.003Z,10.32
2022-12-25T09:14:25.757Z,10.33
2022-12-25T09:16:53.410Z,10.51
2022-12-25T09:19:22.138Z,10.68
2022-12-25T09:21:49.885Z,10.68
2022-12-25T09:24:17.176Z,10.86
2022-12-25T09:26:44.508Z,11.03
2022-12-25T09:29:12.491Z,11.40
2022-12-25T09:31:40.368Z,11.92
2022-12-25T09:34:13.864Z,12.24
2022-12-25T09:36:44.384Z,12.30
2022-12-25T09:39:12.333Z,12.21
2022-12-25T09:41:39.645Z,12.33
2022-12-25T09:44:19.628Z,12.27
2022-12-25T09:46:50.871Z,12.27
2022-12-25T09:49:27.147Z,12.28
2022-12-25T09:51:57.042Z,12.08
2022-12-25T09:54:39.127Z,12.17
2022-12-25T09:57:09.695Z,12.29
2022-12-25T09:59:37.705Z,12.48
2022-12-25T10:02:31.578Z,12.74
2022-12-25T10:04:59.433Z,12.79
2022-12-25T10:07:50.021Z,12.53
2022-12-25T10:10:27.270Z,12.59
2022-12-25T10:13:13.434Z,12.53
2022-12-25T10:16:00.137Z,12.68
2022-12-25T10:18:27.886Z,12.80
2022-12-25T10:20:56.975Z,12.94
2022-12-25T10:23:27.617Z,13.08
2022-12-25T10:25:55.595Z,12.82
2022-12-25T10:28:34.538Z,13.04
2022-12-25T10:31:05.987Z,13.30
2022-12-25T10:33:33.262Z,13.27
2022-12-25T10:36:00.664Z,13.20
2022-12-25T10:38:28.461Z,13.02
2022-12-25T10:41:13.541Z,13.11
2022-12-25T10:43:43.638Z,13.23
2022-12-25T10:46:12.466Z,13.26
2022-12-25T10:48:46.092Z,13.41
2022-12-25T10:51:13.577Z,13.21
2022-12-25T10:53:42.677Z,13.27
2022-12-25T10:56:18.384Z,13.53
2022-12-25T10:58:46.063Z,13.62
2022-12-25T11:01:14.628Z,13.45
2022-12-25T11:03:44.921Z,13.46
2022-12-25T11:06:21.931Z,13.47
2022-12-25T11:08:55.628Z,13.48
2022-12-25T11:11:24.163Z,13.56
2022-12-25T11:13:54.349Z,13.71
2022-12-25T11:16:50.863Z,13.76
2022-12-25T11:19:25.914Z,13.65
2022-12-25T11:21:55.633Z,13.67
2022-12-25T11:24:26.178Z,13.96
2022-12-25T11:26:55.080Z,14.14
2022-12-25T11:29:22.678Z,14.35
2022-12-25T11:31:50.804Z,14.23
2022-12-25T11:34:31.967Z,14.34
2022-12-25T11:37:01.275Z,14.18
2022-12-25T11:39:36.374Z,14.41
2022-12-25T11:42:22.225Z,14.51
2022-12-25T11:44:50.105Z,14.38
2022-12-25T11:47:21.031Z,14.24
2022-12-25T11:49:58.608Z,14.14
2022-12-25T11:52:29.744Z,13.36
2022-12-25T11:55:02.614Z,13.10
2022-12-25T11:57:31.710Z,13.52
2022-12-25T12:00:04.380Z,13.55
2022-12-25T12:02:43.211Z,13.55
2022-12-25T12:05:16.592Z,13.92
2022-12-25T12:08:11.646Z,14.10
2022-12-25T12:11:01.153Z,14.20
2022-12-25T12:13:28.838Z,14.41
2022-12-25T12:15:56.690Z,14.36
2022-12-25T12:18:28.355Z,14.56
2022-12-25T12:20:58.809Z,14.67
2022-12-25T12:23:27.622Z,14.64
2022-12-25T12:25:55.473Z,14.85
2022-12-25T12:28:25.467Z,14.78
2022-12-25T12:31:10.880Z,14.92
2022-12-25T12:33:41.791Z,14.64
2022-12-25T12:36:12.882Z,14.68
2022-12-25T12:38:43.648Z,14.78
2022-12-25T12:41:13.864Z,14.69
2022-12-25T12:43:43.661Z,14.30
2022-12-25T12:46:24.531Z,14.23
2022-12-25T12:49:20.330Z,13.82
2022-12-25T12:51:47.817Z,13.78
2022-12-25T12:54:23.667Z,13.61
2022-12-25T12:56:57.334Z,13.60
2022-12-25T12:59:25.239Z,13.54
2022-12-25T13:02:04.204Z,13.45
2022-12-25T13:04:48.331Z,13.35
2022-12-25T13:07:27.911Z,13.49
2022-12-25T13:10:13.867Z,13.61
2022-12-25T13:12:41.706Z,13.32
2022-12-25T13:15:13.285Z,13.07
2022-12-25T13:17:45.261Z,13.01
2022-12-25T13:20:18.755Z,12.93
2022-12-25T13:22:52.403Z,12.96
2022-12-25T13:25:21.846Z,13.30
2022-12-25T13:27:57.030Z,13.33
2022-12-25T13:30:25.087Z,13.39
2022-12-25T13:32:52.874Z,13.18
2022-12-25T13:35:21.303Z,13.20
2022-12-25T13:37:49.003Z,13.33
2022-12-25T13:40:22.167Z,13.39
2022-12-25T13:42:50.297Z,13.46
2022-12-25T13:45:25.971Z,13.32
2022-12-25T13:47:55.817Z,13.27
2022-12-25T13:50:25.525Z,13.30
2022-12-25T13:52:54.030Z,13.08
2022-12-25T13:55:23.190Z,12.97
2022-12-25T13:57:50.511Z,12.95
2022-12-25T14:00:24.435Z,12.95
2022-12-25T14:02:52.117Z,12.82
2022-12-25T14:05:46.130Z,12.81
2022-12-25T14:08:19.792Z,12.79
2022-12-25T14:10:49.259Z,12.74
2022-12-25T14:13:18.125Z,12.64
2022-12-25T14:15:47.965Z,12.73
2022-12-25T14:18:19.447Z,12.60
2022-12-25T14:21:13.176Z,12.52
2022-12-25T14:23:47.926Z,12.50
2022-12-25T14:26:33.740Z,12.44
2022-12-25T14:29:01.229Z,12.46
2022-12-25T14:31:29.540Z,12.49
2022-12-25T14:33:58.220Z,12.46
2022-12-25T14:36:26.654Z,12.54
2022-12-25T14:39:01.975Z,12.40
2022-12-25T14:41:41.785Z,12.45
2022-12-25T14:44:28.207Z,12.41
2022-12-25T14:47:11.147Z,12.51
2022-12-25T14:49:38.483Z,12.45
2022-12-25T14:52:11.970Z,12.53
2022-12-25T14:54:40.230Z,12.40
2022-12-25T14:57:16.695Z,12.42
2022-12-25T14:59:44.786Z,12.42
2022-12-25T15:02:17.779Z,12.44
2022-12-25T15:04:45.194Z,12.32
2022-12-25T15:07:25.640Z,12.31
2022-12-25T15:10:10.553Z,12.28
2022-12-25T15:12:40.255Z,12.27
2022-12-25T15:15:07.857Z,12.21
2022-12-25T15:17:35.659Z,12.24
2022-12-25T15:20:04.128Z,12.22
2022-12-25T15:23:02.207Z,12.23
2022-12-25T15:25:27.636Z,12.03
2022-12-25T15:27:55.240Z,11.99
2022-12-25T15:30:22.685Z,11.94
2022-12-25T15:32:50.645Z,11.89
2022-12-25T15:35:21.897Z,11.86
2022-12-25T15:37:49.749Z,11.88
2022-12-25T15:40:17.664Z,11.93
2022-12-25T15:42:47.585Z,11.99
2022-12-25T15:45:18.441Z,12.05
2022-12-25T15:47:46.310Z,12.01
2022-12-25T15:50:13.911Z,11.97
2022-12-25T15:52:41.357Z,11.93
2022-12-25T15:55:09.070Z,11.88
2022-12-25T15:57:37.409Z,11.88
2022-12-25T16:00:05.526Z,11.91
2022-12-25T16:02:41.650Z,11.80
2022-12-25T16:05:10.774Z,11.79
2022-12-25T16:07:38.247Z,11.75
2022-12-25T16:10:06.659Z,11.71
2022-12-25T16:12:34.580Z,11.68
2022-12-25T16:15:01.856Z,11.76
2022-12-25T16:17:29.257Z,11.67
2022-12-25T16:19:56.675Z,11.59
2022-12-25T16:22:27.428Z,11.45
2022-12-25T16:24:55.509Z,11.46
2022-12-25T16:27:22.996Z,11.47
2022-12-25T16:29:50.746Z,11.49
2022-12-25T16:32:18.038Z,11.46
2022-12-25T16:34:45.550Z,11.53
2022-12-25T16:37:12.871Z,11.57
2022-12-25T16:39:40.219Z,11.50
2022-12-25T16:42:07.614Z,11.55
2022-12-25T16:44:36.488Z,11.62
2022-12-25T16:47:03.962Z,11.56
2022-12-25T16:49:31.747Z,11.59
2022-12-25T16:51:59.716Z,11.63
2022-12-25T16:54:27.511Z,11.62
2022-12-25T16:56:55.009Z,11.58
2022-12-25T16:59:22.484Z,11.35
2022-12-25T17:01:49.931Z,11.33
2022-12-25T17:04:17.687Z,11.51
2022-12-25T17:06:45.481Z,11.44
2022-12-25T17:09:12.798Z,11.40
2022-12-25T17:11:40.653Z,11.40
2022-12-25T17:14:08.238Z,11.55
2022-12-25T17:16:36.840Z,11.50
2022-12-25T17:19:07.977Z,11.43
2022-12-25T17:21:36.943Z,11.36
2022-12-25T17:24:04.901Z,11.42
2022-12-25T17:26:32.857Z,11.48
2022-12-25T17:29:00.691Z,11.43
2022-12-25T17:31:28.217Z,11.45
2022-12-25T17:33:56.024Z,11.49
2022-12-25T17:36:23.861Z,11.50
2022-12-25T17:38:51.290Z,11.52
2022-12-25T17:41:19.552Z,11.48
2022-12-25T17:43:47.347Z,11.48
2022-12-25T17:46:16.850Z,11.48
2022-12-25T17:48:44.635Z,11.43
2022-12-25T17:51:13.892Z,11.37
2022-12-25T17:53:42.568Z,11.49
2022-12-25T17:56:10.593Z,11.54
2022-12-25T17:58:38.874Z,11.54
2022-12-25T18:01:10.427Z,11.43
2022-12-25T18:03:38.080Z,11.44
2022-12-25T18:06:06.329Z,11.39
2022-12-25T18:08:39.331Z,11.37
2022-12-25T18:11:09.508Z,11.42
2022-12-25T18:13:38.266Z,11.47
2022-12-25T18:16:07.254Z,11.35
2022-12-25T18:18:34.905Z,11.33
2022-12-25T18:21:02.408Z,11.26
2022-12-25T18:23:29.950Z,11.32
2022-12-25T18:26:00.550Z,11.32
2022-12-25T18:28:28.347Z,11.20
2022-12-25T18:30:55.956Z,11.26
2022-12-25T18:33:23.345Z,11.27
2022-12-25T18:35:56.043Z,11.35
2022-12-25T18:38:23.408Z,11.39
2022-12-25T18:40:51.493Z,11.24
2022-12-25T18:43:18.937Z,11.28
2022-12-25T18:45:55.107Z,11.30
2022-12-25T18:48:22.535Z,11.30
2022-12-25T18:50:54.592Z,11.30
2022-12-25T18:53:21.957Z,11.26
2022-12-25T18:55:49.916Z,11.33
2022-12-25T18:58:18.761Z,11.28
2022-12-25T19:00:46.562Z,11.23
2022-12-25T19:03:13.926Z,11.21
2022-12-25T19:05:41.360Z,11.17
2022-12-25T19:08:09.125Z,11.21
2022-12-25T19:10:39.491Z,11.19
2022-12-25T19:13:07.740Z,11.29
2022-12-25T19:15:35.823Z,11.18
2022-12-25T19:18:03.203Z,11.14
2022-12-25T19:20:30.626Z,11.14
2022-12-25T19:22:58.061Z,11.03
2022-12-25T19:25:25.878Z,10.96
2022-12-25T19:27:53.643Z,11.01
2022-12-25T19:30:21.521Z,11.03
2022-12-25T19:32:48.916Z,10.92
2022-12-25T19:35:17.621Z,11.00
2022-12-25T19:37:44.954Z,11.11
2022-12-25T19:40:12.307Z,11.10
2022-12-25T19:42:39.780Z,10.98
2022-12-25T19:45:08.377Z,11.10
2022-12-25T19:47:35.965Z,11.06
2022-12-25T19:50:03.924Z,11.04
2022-12-25T19:52:31.386Z,10.98
2022-12-25T19:54:58.728Z,10.88
2022-12-25T19:57:26.601Z,10.75
2022-12-25T19:59:53.932Z,10.88
2022-12-25T20:02:21.389Z,10.85
2022-12-25T20:04:49.355Z,10.81
2022-12-25T20:07:17.021Z,10.84
2022-12-25T20:09:47.748Z,10.90
2022-12-25T20:12:16.366Z,10.91
2022-12-25T20:14:44.054Z,11.02
2022-12-25T20:17:15.680Z,10.88
2022-12-25T20:19:43.498Z,10.94
2022-12-25T20:22:10.935Z,10.90
2022-12-25T20:24:38.398Z,10.91
2022-12-25T20:27:05.789Z,10.84
2022-12-25T20:29:33.087Z,10.84
2022-12-25T20:32:00.455Z,10.88
2022-12-25T20:34:27.866Z,10.84
2022-12-25T20:36:56.717Z,10.85
2022-12-25T20:39:24.451Z,10.85
2022-12-25T20:41:52.751Z,10.82
2022-12-25T20:44:20.344Z,10.62
2022-12-25T20:46:47.738Z,10.55
2022-12-25T20:49:15.565Z,10.61
2022-12-25T20:51:42.925Z,10.68
2022-12-25T20:54:10.338Z,10.61
2022-12-25T20:56:38.564Z,10.64
2022-12-25T20:59:06.304Z,10.71
2022-12-25T21:01:34.613Z,10.74
2022-12-25T21:04:02.215Z,10.75
2022-12-25T21:06:29.806Z,10.81
2022-12-25T21:08:57.099Z,10.79
2022-12-25T21:11:24.469Z,10.84
2022-12-25T21:13:51.990Z,10.75
2022-12-25T21:16:20.838Z,10.62
2022-12-25T21:18:49.801Z,10.78
2022-12-25T21:21:17.607Z,10.78
2022-12-25T21:23:45.728Z,10.79
2022-12-25T21:26:15.681Z,10.91
2022-12-25T21:28:43.075Z,10.95
2022-12-25T21:31:11.124Z,10.99
2022-12-25T21:33:55.221Z,10.79
2022-12-25T21:36:27.336Z,10.81
2022-12-25T21:39:05.244Z,10.78
2022-12-25T21:41:39.521Z,10.79
2022-12-25T21:44:06.971Z,10.64
2022-12-25T21:46:34.807Z,10.75
2022-12-25T21:49:02.604Z,10.89
2022-12-25T21:51:50.281Z,10.92
2022-12-25T21:54:18.471Z,10.72
2022-12-25T21:56:47.290Z,10.68
2022-12-25T21:59:17.144Z,10.68
2022-12-25T22:01:45.418Z,10.69
2022-12-25T22:04:13.903Z,10.65
2022-12-25T22:07:00.957Z,10.70
2022-12-25T22:09:28.435Z,10.64
2022-12-25T22:12:14.459Z,10.77
2022-12-25T22:14:56.594Z,10.83
2022-12-25T22:17:44.642Z,10.92
2022-12-25T22:20:14.010Z,10.90
2022-12-25T22:22:41.758Z,10.84
2022-12-25T22:25:11.026Z,10.84
2022-12-25T22:27:39.651Z,10.79
2022-12-25T22:30:09.250Z,10.81
2022-12-25T22:32:37.186Z,10.84
2022-12-25T22:35:05.224Z,10.97
2022-12-25T22:37:32.676Z,11.00
2022-12-25T22:40:02.251Z,10.92
2022-12-25T22:42:29.711Z,10.87
2022-12-25T22:44:57.610Z,10.88
2022-12-25T22:47:24.976Z,10.70
2022-12-25T22:49:52.304Z,10.79
2022-12-25T22:52:19.846Z,10.77
2022-12-25T22:54:47.697Z,10.69
2022-12-25T22:57:14.993Z,10.82
2022-12-25T22:59:42.461Z,10.80
2022-12-25T23:02:10.413Z,10.88
2022-12-25T23:04:38.367Z,10.78
2022-12-25T23:07:05.689Z,10.67
2022-12-25T23:09:33.029Z,10.76
2022-12-25T23:12:00.422Z,10.86
2022-12-25T23:14:40.660Z,10.91
2022-12-25T23:17:31.258Z,10.82
2022-12-25T23:20:18.508Z,10.94
2022-12-25T23:23:04.955Z,10.81
2022-12-25T23:25:53.291Z,10.92
2022-12-25T23:28:40.121Z,10.71
2022-12-25T23:31:09.409Z,10.65
2022-12-25T23:33:36.827Z,10.78
2022-12-25T23:36:04.363Z,10.80
2022-12-25T23:38:31.878Z,10.80
2022-12-25T23:40:59.236Z,10.72
2022-12-25T23:43:27.143Z,10.84
2022-12-25T23:45:55.214Z,10.88
2022-12-25T23:48:22.735Z,10.88
2022-12-25T23:50:50.134Z,10.85
2022-12-25T23:53:17.963Z,10.78
2022-12-25T23:55:50.029Z,10.89
2022-12-25T23:58:21.636Z,10.84
